<?xml version="1.0" encoding="UTF-8" standalone="no" ?>
<gpx xmlns="http://www.topografix.com/GPX/1/1" xmlns:xsi="http://www.w3.org/2001/XMLSchema-instance" xsi:schemaLocation="http://www.topografix.com/GPX/1/1 http://www.topografix.com/GPX/1/1/gpx.xsd" version="1.1" creator="VisuGPX - https://www.visugpx.com">
  <metadata>
    <name>Circuit du 02-06-2012</name>
    <desc><![CDATA[Circuit du 02-06-2012]]></desc>
  </metadata>
  <wpt lat="45.37595" lon="3.74889">
    <ele>711.90002441406</ele>
    <name><![CDATA[Start]]></name>
  </wpt>
  <wpt lat="45.38577" lon="3.74351">
    <ele>654</ele>
    <name><![CDATA[End]]></name>
  </wpt>
  <trk>
    <name><![CDATA[Circuit du 02-06-2012_1]]></name>
    <trkseg>
      <trkpt lat="45.37595" lon="3.74889">
        <ele>711.90002441406</ele>
        <time>2012-06-02T09:30:32Z</time>
      </trkpt>
      <trkpt lat="45.37592" lon="3.74895">
        <ele>711.70001220703</ele>
        <time>2012-06-02T09:30:35Z</time>
      </trkpt>
      <trkpt lat="45.37592" lon="3.74904">
        <ele>710.90002441406</ele>
        <time>2012-06-02T09:30:38Z</time>
      </trkpt>
      <trkpt lat="45.37592" lon="3.74913">
        <ele>709.59997558594</ele>
        <time>2012-06-02T09:30:41Z</time>
      </trkpt>
      <trkpt lat="45.37593" lon="3.74919">
        <ele>708.29998779297</ele>
        <time>2012-06-02T09:30:44Z</time>
      </trkpt>
      <trkpt lat="45.37595" lon="3.74931">
        <ele>707</ele>
        <time>2012-06-02T09:30:48Z</time>
      </trkpt>
      <trkpt lat="45.37597" lon="3.74939">
        <ele>706.40002441406</ele>
        <time>2012-06-02T09:30:51Z</time>
      </trkpt>
      <trkpt lat="45.37599" lon="3.7495">
        <ele>703.5</ele>
        <time>2012-06-02T09:30:56Z</time>
      </trkpt>
      <trkpt lat="45.37599" lon="3.74958">
        <ele>701.70001220703</ele>
        <time>2012-06-02T09:30:59Z</time>
      </trkpt>
      <trkpt lat="45.37598" lon="3.74965">
        <ele>700.90002441406</ele>
        <time>2012-06-02T09:31:01Z</time>
      </trkpt>
      <trkpt lat="45.37598" lon="3.74971">
        <ele>700.5</ele>
        <time>2012-06-02T09:31:03Z</time>
      </trkpt>
      <trkpt lat="45.37598" lon="3.74982">
        <ele>700.59997558594</ele>
        <time>2012-06-02T09:31:06Z</time>
      </trkpt>
      <trkpt lat="45.37599" lon="3.74993">
        <ele>700.40002441406</ele>
        <time>2012-06-02T09:31:10Z</time>
      </trkpt>
      <trkpt lat="45.37597" lon="3.75">
        <ele>701.40002441406</ele>
        <time>2012-06-02T09:31:12Z</time>
      </trkpt>
      <trkpt lat="45.37597" lon="3.75011">
        <ele>702.09997558594</ele>
        <time>2012-06-02T09:31:15Z</time>
      </trkpt>
      <trkpt lat="45.37596" lon="3.7502">
        <ele>708</ele>
        <time>2012-06-02T09:31:19Z</time>
      </trkpt>
      <trkpt lat="45.37597" lon="3.75027">
        <ele>706.70001220703</ele>
        <time>2012-06-02T09:31:21Z</time>
      </trkpt>
      <trkpt lat="45.37599" lon="3.75034">
        <ele>705</ele>
        <time>2012-06-02T09:31:24Z</time>
      </trkpt>
      <trkpt lat="45.376" lon="3.75046">
        <ele>704.29998779297</ele>
        <time>2012-06-02T09:31:27Z</time>
      </trkpt>
      <trkpt lat="45.37601" lon="3.75055">
        <ele>704.40002441406</ele>
        <time>2012-06-02T09:31:30Z</time>
      </trkpt>
      <trkpt lat="45.37602" lon="3.7507">
        <ele>704.20001220703</ele>
        <time>2012-06-02T09:31:34Z</time>
      </trkpt>
      <trkpt lat="45.37605" lon="3.7508">
        <ele>704</ele>
        <time>2012-06-02T09:31:37Z</time>
      </trkpt>
      <trkpt lat="45.37609" lon="3.75085">
        <ele>701.90002441406</ele>
        <time>2012-06-02T09:31:40Z</time>
      </trkpt>
      <trkpt lat="45.37613" lon="3.7509">
        <ele>699.59997558594</ele>
        <time>2012-06-02T09:31:43Z</time>
      </trkpt>
      <trkpt lat="45.37617" lon="3.75095">
        <ele>699.90002441406</ele>
        <time>2012-06-02T09:31:45Z</time>
      </trkpt>
      <trkpt lat="45.37621" lon="3.75099">
        <ele>698.5</ele>
        <time>2012-06-02T09:31:48Z</time>
      </trkpt>
      <trkpt lat="45.37625" lon="3.75104">
        <ele>699.59997558594</ele>
        <time>2012-06-02T09:31:50Z</time>
      </trkpt>
      <trkpt lat="45.37629" lon="3.7511">
        <ele>701.40002441406</ele>
        <time>2012-06-02T09:31:53Z</time>
      </trkpt>
      <trkpt lat="45.37634" lon="3.75116">
        <ele>701.5</ele>
        <time>2012-06-02T09:31:56Z</time>
      </trkpt>
      <trkpt lat="45.37636" lon="3.75122">
        <ele>701.09997558594</ele>
        <time>2012-06-02T09:31:58Z</time>
      </trkpt>
      <trkpt lat="45.37638" lon="3.75129">
        <ele>701.29998779297</ele>
        <time>2012-06-02T09:32:00Z</time>
      </trkpt>
      <trkpt lat="45.37641" lon="3.75136">
        <ele>699.29998779297</ele>
        <time>2012-06-02T09:32:03Z</time>
      </trkpt>
      <trkpt lat="45.37642" lon="3.75143">
        <ele>700</ele>
        <time>2012-06-02T09:32:05Z</time>
      </trkpt>
      <trkpt lat="45.37644" lon="3.75151">
        <ele>698.90002441406</ele>
        <time>2012-06-02T09:32:08Z</time>
      </trkpt>
      <trkpt lat="45.37646" lon="3.75158">
        <ele>697.40002441406</ele>
        <time>2012-06-02T09:32:12Z</time>
      </trkpt>
      <trkpt lat="45.3765" lon="3.75168">
        <ele>696.5</ele>
        <time>2012-06-02T09:32:17Z</time>
      </trkpt>
      <trkpt lat="45.37649" lon="3.75174">
        <ele>697.40002441406</ele>
        <time>2012-06-02T09:32:19Z</time>
      </trkpt>
      <trkpt lat="45.37649" lon="3.75183">
        <ele>694.20001220703</ele>
        <time>2012-06-02T09:32:22Z</time>
      </trkpt>
      <trkpt lat="45.37648" lon="3.75192">
        <ele>692.90002441406</ele>
        <time>2012-06-02T09:32:25Z</time>
      </trkpt>
      <trkpt lat="45.3765" lon="3.75199">
        <ele>692.5</ele>
        <time>2012-06-02T09:32:28Z</time>
      </trkpt>
      <trkpt lat="45.37643" lon="3.75216">
        <ele>690.40002441406</ele>
        <time>2012-06-02T09:32:33Z</time>
      </trkpt>
      <trkpt lat="45.37644" lon="3.75223">
        <ele>690.20001220703</ele>
        <time>2012-06-02T09:32:36Z</time>
      </trkpt>
      <trkpt lat="45.37643" lon="3.75232">
        <ele>691.20001220703</ele>
        <time>2012-06-02T09:32:39Z</time>
      </trkpt>
      <trkpt lat="45.37643" lon="3.75241">
        <ele>690.59997558594</ele>
        <time>2012-06-02T09:32:43Z</time>
      </trkpt>
      <trkpt lat="45.37642" lon="3.75249">
        <ele>691.5</ele>
        <time>2012-06-02T09:32:46Z</time>
      </trkpt>
      <trkpt lat="45.37641" lon="3.75258">
        <ele>689.29998779297</ele>
        <time>2012-06-02T09:32:49Z</time>
      </trkpt>
      <trkpt lat="45.3764" lon="3.75266">
        <ele>688.79998779297</ele>
        <time>2012-06-02T09:32:52Z</time>
      </trkpt>
      <trkpt lat="45.37639" lon="3.75273">
        <ele>682.29998779297</ele>
        <time>2012-06-02T09:32:56Z</time>
      </trkpt>
      <trkpt lat="45.3764" lon="3.75279">
        <ele>678.59997558594</ele>
        <time>2012-06-02T09:32:59Z</time>
      </trkpt>
      <trkpt lat="45.37637" lon="3.75287">
        <ele>679.59997558594</ele>
        <time>2012-06-02T09:33:02Z</time>
      </trkpt>
      <trkpt lat="45.37637" lon="3.75296">
        <ele>680.59997558594</ele>
        <time>2012-06-02T09:33:05Z</time>
      </trkpt>
      <trkpt lat="45.37629" lon="3.75305">
        <ele>675.79998779297</ele>
        <time>2012-06-02T09:33:12Z</time>
      </trkpt>
      <trkpt lat="45.37623" lon="3.75305">
        <ele>675.59997558594</ele>
        <time>2012-06-02T09:33:15Z</time>
      </trkpt>
      <trkpt lat="45.37617" lon="3.75307">
        <ele>676.59997558594</ele>
        <time>2012-06-02T09:33:18Z</time>
      </trkpt>
      <trkpt lat="45.37612" lon="3.75307">
        <ele>677.90002441406</ele>
        <time>2012-06-02T09:33:21Z</time>
      </trkpt>
      <trkpt lat="45.37607" lon="3.75309">
        <ele>678.70001220703</ele>
        <time>2012-06-02T09:33:24Z</time>
      </trkpt>
      <trkpt lat="45.37601" lon="3.75308">
        <ele>679.79998779297</ele>
        <time>2012-06-02T09:33:27Z</time>
      </trkpt>
      <trkpt lat="45.37597" lon="3.75306">
        <ele>679.09997558594</ele>
        <time>2012-06-02T09:33:29Z</time>
      </trkpt>
      <trkpt lat="45.37584" lon="3.75304">
        <ele>679.59997558594</ele>
        <time>2012-06-02T09:33:35Z</time>
      </trkpt>
      <trkpt lat="45.37574" lon="3.75305">
        <ele>676.09997558594</ele>
        <time>2012-06-02T09:33:41Z</time>
      </trkpt>
      <trkpt lat="45.37568" lon="3.75308">
        <ele>676.90002441406</ele>
        <time>2012-06-02T09:33:43Z</time>
      </trkpt>
      <trkpt lat="45.37563" lon="3.75304">
        <ele>675.59997558594</ele>
        <time>2012-06-02T09:33:45Z</time>
      </trkpt>
      <trkpt lat="45.37556" lon="3.75303">
        <ele>674.20001220703</ele>
        <time>2012-06-02T09:33:48Z</time>
      </trkpt>
      <trkpt lat="45.3755" lon="3.75304">
        <ele>673.40002441406</ele>
        <time>2012-06-02T09:33:51Z</time>
      </trkpt>
      <trkpt lat="45.37544" lon="3.75308">
        <ele>673.09997558594</ele>
        <time>2012-06-02T09:33:54Z</time>
      </trkpt>
      <trkpt lat="45.3754" lon="3.75312">
        <ele>676.29998779297</ele>
        <time>2012-06-02T09:33:57Z</time>
      </trkpt>
      <trkpt lat="45.37536" lon="3.75317">
        <ele>677.20001220703</ele>
        <time>2012-06-02T09:34:00Z</time>
      </trkpt>
      <trkpt lat="45.37531" lon="3.75323">
        <ele>679.20001220703</ele>
        <time>2012-06-02T09:34:03Z</time>
      </trkpt>
      <trkpt lat="45.37528" lon="3.75328">
        <ele>680.5</ele>
        <time>2012-06-02T09:34:06Z</time>
      </trkpt>
      <trkpt lat="45.37524" lon="3.75335">
        <ele>681.09997558594</ele>
        <time>2012-06-02T09:34:09Z</time>
      </trkpt>
      <trkpt lat="45.37517" lon="3.75357">
        <ele>683</ele>
        <time>2012-06-02T09:34:18Z</time>
      </trkpt>
      <trkpt lat="45.37515" lon="3.75365">
        <ele>686.40002441406</ele>
        <time>2012-06-02T09:34:21Z</time>
      </trkpt>
      <trkpt lat="45.37515" lon="3.75373">
        <ele>684.40002441406</ele>
        <time>2012-06-02T09:34:24Z</time>
      </trkpt>
      <trkpt lat="45.37516" lon="3.7538">
        <ele>685.90002441406</ele>
        <time>2012-06-02T09:34:27Z</time>
      </trkpt>
      <trkpt lat="45.37516" lon="3.75389">
        <ele>687.70001220703</ele>
        <time>2012-06-02T09:34:30Z</time>
      </trkpt>
      <trkpt lat="45.37516" lon="3.75397">
        <ele>688.79998779297</ele>
        <time>2012-06-02T09:34:32Z</time>
      </trkpt>
      <trkpt lat="45.37517" lon="3.75416">
        <ele>688</ele>
        <time>2012-06-02T09:34:39Z</time>
      </trkpt>
      <trkpt lat="45.37515" lon="3.75424">
        <ele>687.29998779297</ele>
        <time>2012-06-02T09:34:42Z</time>
      </trkpt>
      <trkpt lat="45.37512" lon="3.75433">
        <ele>687.90002441406</ele>
        <time>2012-06-02T09:34:46Z</time>
      </trkpt>
      <trkpt lat="45.37511" lon="3.75443">
        <ele>686.29998779297</ele>
        <time>2012-06-02T09:34:50Z</time>
      </trkpt>
      <trkpt lat="45.37509" lon="3.75448">
        <ele>684.90002441406</ele>
        <time>2012-06-02T09:34:52Z</time>
      </trkpt>
      <trkpt lat="45.37506" lon="3.75455">
        <ele>683.20001220703</ele>
        <time>2012-06-02T09:34:55Z</time>
      </trkpt>
      <trkpt lat="45.37501" lon="3.75465">
        <ele>682.29998779297</ele>
        <time>2012-06-02T09:34:59Z</time>
      </trkpt>
      <trkpt lat="45.37498" lon="3.75474">
        <ele>681.5</ele>
        <time>2012-06-02T09:35:03Z</time>
      </trkpt>
      <trkpt lat="45.37496" lon="3.7548">
        <ele>680.90002441406</ele>
        <time>2012-06-02T09:35:05Z</time>
      </trkpt>
      <trkpt lat="45.37487" lon="3.75499">
        <ele>684</ele>
        <time>2012-06-02T09:35:12Z</time>
      </trkpt>
      <trkpt lat="45.37483" lon="3.75505">
        <ele>685.09997558594</ele>
        <time>2012-06-02T09:35:14Z</time>
      </trkpt>
      <trkpt lat="45.3748" lon="3.7551">
        <ele>683.5</ele>
        <time>2012-06-02T09:35:17Z</time>
      </trkpt>
      <trkpt lat="45.37477" lon="3.75515">
        <ele>681.29998779297</ele>
        <time>2012-06-02T09:35:21Z</time>
      </trkpt>
      <trkpt lat="45.37473" lon="3.75519">
        <ele>681.5</ele>
        <time>2012-06-02T09:35:24Z</time>
      </trkpt>
      <trkpt lat="45.37469" lon="3.75523">
        <ele>674.5</ele>
        <time>2012-06-02T09:35:30Z</time>
      </trkpt>
      <trkpt lat="45.37465" lon="3.75529">
        <ele>673.59997558594</ele>
        <time>2012-06-02T09:35:33Z</time>
      </trkpt>
      <trkpt lat="45.37463" lon="3.75535">
        <ele>673.5</ele>
        <time>2012-06-02T09:35:35Z</time>
      </trkpt>
      <trkpt lat="45.37462" lon="3.75541">
        <ele>673.70001220703</ele>
        <time>2012-06-02T09:35:37Z</time>
      </trkpt>
      <trkpt lat="45.37461" lon="3.7555">
        <ele>677.20001220703</ele>
        <time>2012-06-02T09:35:40Z</time>
      </trkpt>
      <trkpt lat="45.3746" lon="3.75557">
        <ele>677.79998779297</ele>
        <time>2012-06-02T09:35:44Z</time>
      </trkpt>
      <trkpt lat="45.37465" lon="3.75562">
        <ele>675.70001220703</ele>
        <time>2012-06-02T09:35:52Z</time>
      </trkpt>
      <trkpt lat="45.37468" lon="3.75569">
        <ele>672.5</ele>
        <time>2012-06-02T09:35:54Z</time>
      </trkpt>
      <trkpt lat="45.37472" lon="3.75573">
        <ele>670.5</ele>
        <time>2012-06-02T09:35:57Z</time>
      </trkpt>
      <trkpt lat="45.37475" lon="3.75579">
        <ele>667.70001220703</ele>
        <time>2012-06-02T09:35:59Z</time>
      </trkpt>
      <trkpt lat="45.37479" lon="3.75586">
        <ele>670.90002441406</ele>
        <time>2012-06-02T09:36:03Z</time>
      </trkpt>
      <trkpt lat="45.37483" lon="3.75581">
        <ele>672.29998779297</ele>
        <time>2012-06-02T09:36:05Z</time>
      </trkpt>
      <trkpt lat="45.37487" lon="3.75579">
        <ele>671.79998779297</ele>
        <time>2012-06-02T09:36:06Z</time>
      </trkpt>
      <trkpt lat="45.37494" lon="3.75573">
        <ele>673.40002441406</ele>
        <time>2012-06-02T09:36:10Z</time>
      </trkpt>
      <trkpt lat="45.37499" lon="3.75571">
        <ele>670.29998779297</ele>
        <time>2012-06-02T09:36:13Z</time>
      </trkpt>
      <trkpt lat="45.37505" lon="3.75571">
        <ele>670.20001220703</ele>
        <time>2012-06-02T09:36:16Z</time>
      </trkpt>
      <trkpt lat="45.37511" lon="3.75571">
        <ele>669</ele>
        <time>2012-06-02T09:36:19Z</time>
      </trkpt>
      <trkpt lat="45.37517" lon="3.75571">
        <ele>669.09997558594</ele>
        <time>2012-06-02T09:36:22Z</time>
      </trkpt>
      <trkpt lat="45.37522" lon="3.75571">
        <ele>669</ele>
        <time>2012-06-02T09:36:24Z</time>
      </trkpt>
      <trkpt lat="45.37526" lon="3.7557">
        <ele>671</ele>
        <time>2012-06-02T09:36:26Z</time>
      </trkpt>
      <trkpt lat="45.37531" lon="3.75568">
        <ele>670.59997558594</ele>
        <time>2012-06-02T09:36:29Z</time>
      </trkpt>
      <trkpt lat="45.37537" lon="3.75565">
        <ele>670.90002441406</ele>
        <time>2012-06-02T09:36:32Z</time>
      </trkpt>
      <trkpt lat="45.37541" lon="3.75563">
        <ele>669</ele>
        <time>2012-06-02T09:36:35Z</time>
      </trkpt>
      <trkpt lat="45.37553" lon="3.75557">
        <ele>667.90002441406</ele>
        <time>2012-06-02T09:36:42Z</time>
      </trkpt>
      <trkpt lat="45.37558" lon="3.75553">
        <ele>667.09997558594</ele>
        <time>2012-06-02T09:36:45Z</time>
      </trkpt>
      <trkpt lat="45.37564" lon="3.7555">
        <ele>666.79998779297</ele>
        <time>2012-06-02T09:36:48Z</time>
      </trkpt>
      <trkpt lat="45.37569" lon="3.75546">
        <ele>666.79998779297</ele>
        <time>2012-06-02T09:36:52Z</time>
      </trkpt>
      <trkpt lat="45.37574" lon="3.75544">
        <ele>666.59997558594</ele>
        <time>2012-06-02T09:36:55Z</time>
      </trkpt>
      <trkpt lat="45.37581" lon="3.75545">
        <ele>666.40002441406</ele>
        <time>2012-06-02T09:36:57Z</time>
      </trkpt>
      <trkpt lat="45.37585" lon="3.75544">
        <ele>666</ele>
        <time>2012-06-02T09:36:59Z</time>
      </trkpt>
      <trkpt lat="45.37599" lon="3.75538">
        <ele>665.20001220703</ele>
        <time>2012-06-02T09:37:04Z</time>
      </trkpt>
      <trkpt lat="45.37605" lon="3.75541">
        <ele>663.59997558594</ele>
        <time>2012-06-02T09:37:07Z</time>
      </trkpt>
      <trkpt lat="45.37609" lon="3.75545">
        <ele>664.09997558594</ele>
        <time>2012-06-02T09:37:09Z</time>
      </trkpt>
      <trkpt lat="45.37612" lon="3.75552">
        <ele>665.59997558594</ele>
        <time>2012-06-02T09:37:11Z</time>
      </trkpt>
      <trkpt lat="45.37623" lon="3.75576">
        <ele>664.5</ele>
        <time>2012-06-02T09:37:22Z</time>
      </trkpt>
      <trkpt lat="45.37618" lon="3.75581">
        <ele>665.20001220703</ele>
        <time>2012-06-02T09:37:23Z</time>
      </trkpt>
      <trkpt lat="45.37623" lon="3.75584">
        <ele>661.40002441406</ele>
        <time>2012-06-02T09:37:25Z</time>
      </trkpt>
      <trkpt lat="45.37627" lon="3.7559">
        <ele>660.09997558594</ele>
        <time>2012-06-02T09:37:27Z</time>
      </trkpt>
      <trkpt lat="45.37629" lon="3.75597">
        <ele>659.20001220703</ele>
        <time>2012-06-02T09:37:29Z</time>
      </trkpt>
      <trkpt lat="45.37631" lon="3.75604">
        <ele>657.40002441406</ele>
        <time>2012-06-02T09:37:31Z</time>
      </trkpt>
      <trkpt lat="45.37632" lon="3.7561">
        <ele>657.70001220703</ele>
        <time>2012-06-02T09:37:33Z</time>
      </trkpt>
      <trkpt lat="45.37633" lon="3.75619">
        <ele>659.5</ele>
        <time>2012-06-02T09:37:36Z</time>
      </trkpt>
      <trkpt lat="45.37634" lon="3.75625">
        <ele>659.09997558594</ele>
        <time>2012-06-02T09:37:38Z</time>
      </trkpt>
      <trkpt lat="45.37635" lon="3.75632">
        <ele>660.70001220703</ele>
        <time>2012-06-02T09:37:40Z</time>
      </trkpt>
      <trkpt lat="45.37636" lon="3.75642">
        <ele>661.90002441406</ele>
        <time>2012-06-02T09:37:43Z</time>
      </trkpt>
      <trkpt lat="45.37638" lon="3.75649">
        <ele>663.5</ele>
        <time>2012-06-02T09:37:45Z</time>
      </trkpt>
      <trkpt lat="45.3764" lon="3.75657">
        <ele>664.5</ele>
        <time>2012-06-02T09:37:48Z</time>
      </trkpt>
      <trkpt lat="45.37641" lon="3.75666">
        <ele>666.40002441406</ele>
        <time>2012-06-02T09:37:51Z</time>
      </trkpt>
      <trkpt lat="45.37652" lon="3.7569">
        <ele>667.70001220703</ele>
        <time>2012-06-02T09:38:00Z</time>
      </trkpt>
      <trkpt lat="45.37653" lon="3.75696">
        <ele>667.70001220703</ele>
        <time>2012-06-02T09:38:01Z</time>
      </trkpt>
      <trkpt lat="45.37652" lon="3.75707">
        <ele>668.40002441406</ele>
        <time>2012-06-02T09:38:04Z</time>
      </trkpt>
      <trkpt lat="45.37654" lon="3.75714">
        <ele>671.40002441406</ele>
        <time>2012-06-02T09:38:06Z</time>
      </trkpt>
      <trkpt lat="45.37656" lon="3.75721">
        <ele>670.59997558594</ele>
        <time>2012-06-02T09:38:10Z</time>
      </trkpt>
      <trkpt lat="45.37659" lon="3.75727">
        <ele>672.40002441406</ele>
        <time>2012-06-02T09:38:13Z</time>
      </trkpt>
      <trkpt lat="45.37661" lon="3.75733">
        <ele>672.90002441406</ele>
        <time>2012-06-02T09:38:16Z</time>
      </trkpt>
      <trkpt lat="45.37672" lon="3.75754">
        <ele>671.20001220703</ele>
        <time>2012-06-02T09:38:26Z</time>
      </trkpt>
      <trkpt lat="45.37676" lon="3.75757">
        <ele>667.5</ele>
        <time>2012-06-02T09:38:29Z</time>
      </trkpt>
      <trkpt lat="45.37683" lon="3.75759">
        <ele>666.90002441406</ele>
        <time>2012-06-02T09:38:32Z</time>
      </trkpt>
      <trkpt lat="45.37695" lon="3.75754">
        <ele>664.5</ele>
        <time>2012-06-02T09:38:39Z</time>
      </trkpt>
      <trkpt lat="45.37699" lon="3.75749">
        <ele>664.90002441406</ele>
        <time>2012-06-02T09:38:42Z</time>
      </trkpt>
      <trkpt lat="45.37709" lon="3.75726">
        <ele>669.29998779297</ele>
        <time>2012-06-02T09:38:51Z</time>
      </trkpt>
      <trkpt lat="45.37709" lon="3.75718">
        <ele>671</ele>
        <time>2012-06-02T09:38:55Z</time>
      </trkpt>
      <trkpt lat="45.37713" lon="3.75711">
        <ele>674.90002441406</ele>
        <time>2012-06-02T09:38:58Z</time>
      </trkpt>
      <trkpt lat="45.37717" lon="3.75706">
        <ele>677.79998779297</ele>
        <time>2012-06-02T09:39:01Z</time>
      </trkpt>
      <trkpt lat="45.37723" lon="3.757">
        <ele>676.40002441406</ele>
        <time>2012-06-02T09:39:06Z</time>
      </trkpt>
      <trkpt lat="45.37726" lon="3.75697">
        <ele>677.40289306641</ele>
        <time>2012-06-02T09:39:07Z</time>
      </trkpt>
      <trkpt lat="45.37735" lon="3.7569">
        <ele>677.59997558594</ele>
        <time>2012-06-02T09:39:12Z</time>
      </trkpt>
      <trkpt lat="45.37739" lon="3.75689">
        <ele>680.20001220703</ele>
        <time>2012-06-02T09:39:14Z</time>
      </trkpt>
      <trkpt lat="45.37744" lon="3.75688">
        <ele>680.29998779297</ele>
        <time>2012-06-02T09:39:16Z</time>
      </trkpt>
      <trkpt lat="45.37749" lon="3.75688">
        <ele>679.90002441406</ele>
        <time>2012-06-02T09:39:18Z</time>
      </trkpt>
      <trkpt lat="45.37754" lon="3.75684">
        <ele>677.90002441406</ele>
        <time>2012-06-02T09:39:21Z</time>
      </trkpt>
      <trkpt lat="45.37759" lon="3.7568">
        <ele>678.40002441406</ele>
        <time>2012-06-02T09:39:23Z</time>
      </trkpt>
      <trkpt lat="45.37774" lon="3.75673">
        <ele>678.70001220703</ele>
        <time>2012-06-02T09:39:30Z</time>
      </trkpt>
      <trkpt lat="45.37781" lon="3.75671">
        <ele>677</ele>
        <time>2012-06-02T09:39:33Z</time>
      </trkpt>
      <trkpt lat="45.37786" lon="3.7567">
        <ele>677.29998779297</ele>
        <time>2012-06-02T09:39:35Z</time>
      </trkpt>
      <trkpt lat="45.37791" lon="3.75665">
        <ele>677.5</ele>
        <time>2012-06-02T09:39:38Z</time>
      </trkpt>
      <trkpt lat="45.37797" lon="3.75662">
        <ele>677.5</ele>
        <time>2012-06-02T09:39:41Z</time>
      </trkpt>
      <trkpt lat="45.37801" lon="3.75658">
        <ele>677.20001220703</ele>
        <time>2012-06-02T09:39:43Z</time>
      </trkpt>
      <trkpt lat="45.3781" lon="3.75651">
        <ele>678.29998779297</ele>
        <time>2012-06-02T09:39:47Z</time>
      </trkpt>
      <trkpt lat="45.37814" lon="3.75646">
        <ele>677.70001220703</ele>
        <time>2012-06-02T09:39:49Z</time>
      </trkpt>
      <trkpt lat="45.37819" lon="3.75642">
        <ele>676.90002441406</ele>
        <time>2012-06-02T09:39:52Z</time>
      </trkpt>
      <trkpt lat="45.37825" lon="3.75635">
        <ele>677.29998779297</ele>
        <time>2012-06-02T09:39:57Z</time>
      </trkpt>
      <trkpt lat="45.37829" lon="3.75631">
        <ele>677.59997558594</ele>
        <time>2012-06-02T09:40:00Z</time>
      </trkpt>
      <trkpt lat="45.37833" lon="3.75626">
        <ele>678</ele>
        <time>2012-06-02T09:40:04Z</time>
      </trkpt>
      <trkpt lat="45.37837" lon="3.75623">
        <ele>678.29998779297</ele>
        <time>2012-06-02T09:40:06Z</time>
      </trkpt>
      <trkpt lat="45.37843" lon="3.75618">
        <ele>678.40002441406</ele>
        <time>2012-06-02T09:40:09Z</time>
      </trkpt>
      <trkpt lat="45.37847" lon="3.75613">
        <ele>676.79998779297</ele>
        <time>2012-06-02T09:40:12Z</time>
      </trkpt>
      <trkpt lat="45.37851" lon="3.7561">
        <ele>676.70001220703</ele>
        <time>2012-06-02T09:40:15Z</time>
      </trkpt>
      <trkpt lat="45.37855" lon="3.75608">
        <ele>676.79998779297</ele>
        <time>2012-06-02T09:40:17Z</time>
      </trkpt>
      <trkpt lat="45.3786" lon="3.75604">
        <ele>678</ele>
        <time>2012-06-02T09:40:20Z</time>
      </trkpt>
      <trkpt lat="45.37864" lon="3.756">
        <ele>679.79998779297</ele>
        <time>2012-06-02T09:40:22Z</time>
      </trkpt>
      <trkpt lat="45.37869" lon="3.75601">
        <ele>679.29998779297</ele>
        <time>2012-06-02T09:40:24Z</time>
      </trkpt>
      <trkpt lat="45.37874" lon="3.756">
        <ele>678.40002441406</ele>
        <time>2012-06-02T09:40:26Z</time>
      </trkpt>
      <trkpt lat="45.37878" lon="3.75598">
        <ele>678.70001220703</ele>
        <time>2012-06-02T09:40:28Z</time>
      </trkpt>
      <trkpt lat="45.37883" lon="3.75593">
        <ele>680.59997558594</ele>
        <time>2012-06-02T09:40:30Z</time>
      </trkpt>
      <trkpt lat="45.37888" lon="3.7559">
        <ele>682.20001220703</ele>
        <time>2012-06-02T09:40:32Z</time>
      </trkpt>
      <trkpt lat="45.37892" lon="3.75588">
        <ele>683</ele>
        <time>2012-06-02T09:40:34Z</time>
      </trkpt>
      <trkpt lat="45.37899" lon="3.75583">
        <ele>680.70001220703</ele>
        <time>2012-06-02T09:40:38Z</time>
      </trkpt>
      <trkpt lat="45.37903" lon="3.75581">
        <ele>680.29998779297</ele>
        <time>2012-06-02T09:40:40Z</time>
      </trkpt>
      <trkpt lat="45.37909" lon="3.75578">
        <ele>676</ele>
        <time>2012-06-02T09:40:45Z</time>
      </trkpt>
      <trkpt lat="45.37915" lon="3.75574">
        <ele>677</ele>
        <time>2012-06-02T09:40:47Z</time>
      </trkpt>
      <trkpt lat="45.37921" lon="3.75572">
        <ele>676.29998779297</ele>
        <time>2012-06-02T09:40:51Z</time>
      </trkpt>
      <trkpt lat="45.3793" lon="3.75565">
        <ele>672.40002441406</ele>
        <time>2012-06-02T09:40:56Z</time>
      </trkpt>
      <trkpt lat="45.37936" lon="3.75561">
        <ele>675.90002441406</ele>
        <time>2012-06-02T09:40:58Z</time>
      </trkpt>
      <trkpt lat="45.37941" lon="3.75558">
        <ele>674.5</ele>
        <time>2012-06-02T09:41:00Z</time>
      </trkpt>
      <trkpt lat="45.37946" lon="3.75553">
        <ele>673.90002441406</ele>
        <time>2012-06-02T09:41:02Z</time>
      </trkpt>
      <trkpt lat="45.37951" lon="3.7555">
        <ele>673.70001220703</ele>
        <time>2012-06-02T09:41:05Z</time>
      </trkpt>
      <trkpt lat="45.37956" lon="3.75546">
        <ele>674</ele>
        <time>2012-06-02T09:41:08Z</time>
      </trkpt>
      <trkpt lat="45.37962" lon="3.75543">
        <ele>673.09997558594</ele>
        <time>2012-06-02T09:41:11Z</time>
      </trkpt>
      <trkpt lat="45.37968" lon="3.75538">
        <ele>674.20001220703</ele>
        <time>2012-06-02T09:41:13Z</time>
      </trkpt>
      <trkpt lat="45.37981" lon="3.75528">
        <ele>673.20001220703</ele>
        <time>2012-06-02T09:41:21Z</time>
      </trkpt>
      <trkpt lat="45.37995" lon="3.75515">
        <ele>672.70001220703</ele>
        <time>2012-06-02T09:41:29Z</time>
      </trkpt>
      <trkpt lat="45.38001" lon="3.75513">
        <ele>674.20001220703</ele>
        <time>2012-06-02T09:41:31Z</time>
      </trkpt>
      <trkpt lat="45.38003" lon="3.75508">
        <ele>671.40002441406</ele>
        <time>2012-06-02T09:41:34Z</time>
      </trkpt>
      <trkpt lat="45.3801" lon="3.75504">
        <ele>669.79998779297</ele>
        <time>2012-06-02T09:41:37Z</time>
      </trkpt>
      <trkpt lat="45.38017" lon="3.75497">
        <ele>671.59997558594</ele>
        <time>2012-06-02T09:41:43Z</time>
      </trkpt>
      <trkpt lat="45.38022" lon="3.75494">
        <ele>671.20001220703</ele>
        <time>2012-06-02T09:41:45Z</time>
      </trkpt>
      <trkpt lat="45.38027" lon="3.75492">
        <ele>670.5</ele>
        <time>2012-06-02T09:41:48Z</time>
      </trkpt>
      <trkpt lat="45.38031" lon="3.75487">
        <ele>669.90002441406</ele>
        <time>2012-06-02T09:41:51Z</time>
      </trkpt>
      <trkpt lat="45.38036" lon="3.75483">
        <ele>668.40002441406</ele>
        <time>2012-06-02T09:41:54Z</time>
      </trkpt>
      <trkpt lat="45.38045" lon="3.75479">
        <ele>666.90002441406</ele>
        <time>2012-06-02T09:42:00Z</time>
      </trkpt>
      <trkpt lat="45.3805" lon="3.75474">
        <ele>667.70001220703</ele>
        <time>2012-06-02T09:42:04Z</time>
      </trkpt>
      <trkpt lat="45.38056" lon="3.75471">
        <ele>667.90002441406</ele>
        <time>2012-06-02T09:42:07Z</time>
      </trkpt>
      <trkpt lat="45.38061" lon="3.75468">
        <ele>668.20001220703</ele>
        <time>2012-06-02T09:42:10Z</time>
      </trkpt>
      <trkpt lat="45.38066" lon="3.75465">
        <ele>668.5</ele>
        <time>2012-06-02T09:42:12Z</time>
      </trkpt>
      <trkpt lat="45.38071" lon="3.75462">
        <ele>666.29998779297</ele>
        <time>2012-06-02T09:42:15Z</time>
      </trkpt>
      <trkpt lat="45.38078" lon="3.75455">
        <ele>665.79998779297</ele>
        <time>2012-06-02T09:42:19Z</time>
      </trkpt>
      <trkpt lat="45.38084" lon="3.7545">
        <ele>666.79998779297</ele>
        <time>2012-06-02T09:42:22Z</time>
      </trkpt>
      <trkpt lat="45.38088" lon="3.75447">
        <ele>666.79998779297</ele>
        <time>2012-06-02T09:42:24Z</time>
      </trkpt>
      <trkpt lat="45.38092" lon="3.75442">
        <ele>666.70001220703</ele>
        <time>2012-06-02T09:42:26Z</time>
      </trkpt>
      <trkpt lat="45.38096" lon="3.75435">
        <ele>665.29998779297</ele>
        <time>2012-06-02T09:42:29Z</time>
      </trkpt>
      <trkpt lat="45.38101" lon="3.75428">
        <ele>666.70001220703</ele>
        <time>2012-06-02T09:42:32Z</time>
      </trkpt>
      <trkpt lat="45.38103" lon="3.75421">
        <ele>666.20001220703</ele>
        <time>2012-06-02T09:42:35Z</time>
      </trkpt>
      <trkpt lat="45.38107" lon="3.75415">
        <ele>664.70001220703</ele>
        <time>2012-06-02T09:42:38Z</time>
      </trkpt>
      <trkpt lat="45.38114" lon="3.75407">
        <ele>664.59997558594</ele>
        <time>2012-06-02T09:42:42Z</time>
      </trkpt>
      <trkpt lat="45.38118" lon="3.75399">
        <ele>665.29998779297</ele>
        <time>2012-06-02T09:42:45Z</time>
      </trkpt>
      <trkpt lat="45.38123" lon="3.75394">
        <ele>665.5</ele>
        <time>2012-06-02T09:42:47Z</time>
      </trkpt>
      <trkpt lat="45.38129" lon="3.75388">
        <ele>665.5</ele>
        <time>2012-06-02T09:42:50Z</time>
      </trkpt>
      <trkpt lat="45.38133" lon="3.75382">
        <ele>665.70001220703</ele>
        <time>2012-06-02T09:42:53Z</time>
      </trkpt>
      <trkpt lat="45.38137" lon="3.75376">
        <ele>665.59997558594</ele>
        <time>2012-06-02T09:42:55Z</time>
      </trkpt>
      <trkpt lat="45.38141" lon="3.7537">
        <ele>666.40002441406</ele>
        <time>2012-06-02T09:42:57Z</time>
      </trkpt>
      <trkpt lat="45.38146" lon="3.75365">
        <ele>667.09997558594</ele>
        <time>2012-06-02T09:43:00Z</time>
      </trkpt>
      <trkpt lat="45.3815" lon="3.75362">
        <ele>668.20001220703</ele>
        <time>2012-06-02T09:43:02Z</time>
      </trkpt>
      <trkpt lat="45.38155" lon="3.75358">
        <ele>666.20001220703</ele>
        <time>2012-06-02T09:43:05Z</time>
      </trkpt>
      <trkpt lat="45.3816" lon="3.75354">
        <ele>665.20001220703</ele>
        <time>2012-06-02T09:43:07Z</time>
      </trkpt>
      <trkpt lat="45.38166" lon="3.75349">
        <ele>666.90002441406</ele>
        <time>2012-06-02T09:43:10Z</time>
      </trkpt>
      <trkpt lat="45.38169" lon="3.75344">
        <ele>666.90002441406</ele>
        <time>2012-06-02T09:43:13Z</time>
      </trkpt>
      <trkpt lat="45.38173" lon="3.7534">
        <ele>667.5</ele>
        <time>2012-06-02T09:43:16Z</time>
      </trkpt>
      <trkpt lat="45.38176" lon="3.75335">
        <ele>666.79998779297</ele>
        <time>2012-06-02T09:43:19Z</time>
      </trkpt>
      <trkpt lat="45.38182" lon="3.75331">
        <ele>666.29998779297</ele>
        <time>2012-06-02T09:43:22Z</time>
      </trkpt>
      <trkpt lat="45.38186" lon="3.75328">
        <ele>665.40002441406</ele>
        <time>2012-06-02T09:43:24Z</time>
      </trkpt>
      <trkpt lat="45.3819" lon="3.75323">
        <ele>665.90002441406</ele>
        <time>2012-06-02T09:43:27Z</time>
      </trkpt>
      <trkpt lat="45.38194" lon="3.75318">
        <ele>665.09997558594</ele>
        <time>2012-06-02T09:43:29Z</time>
      </trkpt>
      <trkpt lat="45.38201" lon="3.75312">
        <ele>661.70001220703</ele>
        <time>2012-06-02T09:43:34Z</time>
      </trkpt>
      <trkpt lat="45.38205" lon="3.75302">
        <ele>660.29998779297</ele>
        <time>2012-06-02T09:43:38Z</time>
      </trkpt>
      <trkpt lat="45.3822" lon="3.75289">
        <ele>660</ele>
        <time>2012-06-02T09:43:46Z</time>
      </trkpt>
      <trkpt lat="45.38224" lon="3.75285">
        <ele>659.40002441406</ele>
        <time>2012-06-02T09:43:48Z</time>
      </trkpt>
      <trkpt lat="45.3823" lon="3.75278">
        <ele>661.70001220703</ele>
        <time>2012-06-02T09:43:51Z</time>
      </trkpt>
      <trkpt lat="45.38236" lon="3.75273">
        <ele>662.90002441406</ele>
        <time>2012-06-02T09:43:54Z</time>
      </trkpt>
      <trkpt lat="45.38241" lon="3.75268">
        <ele>663.70001220703</ele>
        <time>2012-06-02T09:43:57Z</time>
      </trkpt>
      <trkpt lat="45.38238" lon="3.75262">
        <ele>663.5</ele>
        <time>2012-06-02T09:43:58Z</time>
      </trkpt>
      <trkpt lat="45.38244" lon="3.75256">
        <ele>665.5</ele>
        <time>2012-06-02T09:44:01Z</time>
      </trkpt>
      <trkpt lat="45.38249" lon="3.75254">
        <ele>666.29998779297</ele>
        <time>2012-06-02T09:44:03Z</time>
      </trkpt>
      <trkpt lat="45.38257" lon="3.75247">
        <ele>666.70001220703</ele>
        <time>2012-06-02T09:44:07Z</time>
      </trkpt>
      <trkpt lat="45.38262" lon="3.75245">
        <ele>666.70001220703</ele>
        <time>2012-06-02T09:44:09Z</time>
      </trkpt>
      <trkpt lat="45.38266" lon="3.7524">
        <ele>666.70001220703</ele>
        <time>2012-06-02T09:44:13Z</time>
      </trkpt>
      <trkpt lat="45.38268" lon="3.75234">
        <ele>667.70001220703</ele>
        <time>2012-06-02T09:44:15Z</time>
      </trkpt>
      <trkpt lat="45.38269" lon="3.75225">
        <ele>668.59997558594</ele>
        <time>2012-06-02T09:44:18Z</time>
      </trkpt>
      <trkpt lat="45.38271" lon="3.75211">
        <ele>667.79998779297</ele>
        <time>2012-06-02T09:44:22Z</time>
      </trkpt>
      <trkpt lat="45.38289" lon="3.75171">
        <ele>655.59997558594</ele>
        <time>2012-06-02T09:44:31Z</time>
      </trkpt>
      <trkpt lat="45.3828" lon="3.75165">
        <ele>657</ele>
        <time>2012-06-02T09:44:35Z</time>
      </trkpt>
      <trkpt lat="45.38283" lon="3.7516">
        <ele>658.90002441406</ele>
        <time>2012-06-02T09:44:38Z</time>
      </trkpt>
      <trkpt lat="45.38287" lon="3.75154">
        <ele>660.09997558594</ele>
        <time>2012-06-02T09:44:41Z</time>
      </trkpt>
      <trkpt lat="45.38292" lon="3.75147">
        <ele>661.20001220703</ele>
        <time>2012-06-02T09:44:44Z</time>
      </trkpt>
      <trkpt lat="45.38293" lon="3.7514">
        <ele>659.5</ele>
        <time>2012-06-02T09:44:47Z</time>
      </trkpt>
      <trkpt lat="45.38297" lon="3.75136">
        <ele>658.90002441406</ele>
        <time>2012-06-02T09:44:49Z</time>
      </trkpt>
      <trkpt lat="45.38301" lon="3.75129">
        <ele>660.5</ele>
        <time>2012-06-02T09:44:52Z</time>
      </trkpt>
      <trkpt lat="45.38315" lon="3.75118">
        <ele>662.59997558594</ele>
        <time>2012-06-02T09:45:00Z</time>
      </trkpt>
      <trkpt lat="45.38318" lon="3.75112">
        <ele>662.40002441406</ele>
        <time>2012-06-02T09:45:02Z</time>
      </trkpt>
      <trkpt lat="45.38321" lon="3.75105">
        <ele>662.70001220703</ele>
        <time>2012-06-02T09:45:04Z</time>
      </trkpt>
      <trkpt lat="45.38327" lon="3.75101">
        <ele>661.90002441406</ele>
        <time>2012-06-02T09:45:07Z</time>
      </trkpt>
      <trkpt lat="45.3833" lon="3.75095">
        <ele>661.79998779297</ele>
        <time>2012-06-02T09:45:10Z</time>
      </trkpt>
      <trkpt lat="45.38335" lon="3.75087">
        <ele>662.09997558594</ele>
        <time>2012-06-02T09:45:13Z</time>
      </trkpt>
      <trkpt lat="45.38338" lon="3.7508">
        <ele>662.40002441406</ele>
        <time>2012-06-02T09:45:16Z</time>
      </trkpt>
      <trkpt lat="45.38339" lon="3.75073">
        <ele>662</ele>
        <time>2012-06-02T09:45:19Z</time>
      </trkpt>
      <trkpt lat="45.38349" lon="3.75043">
        <ele>657.5</ele>
        <time>2012-06-02T09:45:30Z</time>
      </trkpt>
      <trkpt lat="45.38351" lon="3.75036">
        <ele>655.70001220703</ele>
        <time>2012-06-02T09:45:33Z</time>
      </trkpt>
      <trkpt lat="45.38355" lon="3.75028">
        <ele>655.5</ele>
        <time>2012-06-02T09:45:36Z</time>
      </trkpt>
      <trkpt lat="45.38353" lon="3.75021">
        <ele>655.29998779297</ele>
        <time>2012-06-02T09:45:38Z</time>
      </trkpt>
      <trkpt lat="45.38355" lon="3.75015">
        <ele>654</ele>
        <time>2012-06-02T09:45:40Z</time>
      </trkpt>
      <trkpt lat="45.38359" lon="3.75007">
        <ele>654</ele>
        <time>2012-06-02T09:45:43Z</time>
      </trkpt>
      <trkpt lat="45.38362" lon="3.75002">
        <ele>653.5</ele>
        <time>2012-06-02T09:45:45Z</time>
      </trkpt>
      <trkpt lat="45.38367" lon="3.74996">
        <ele>654.29998779297</ele>
        <time>2012-06-02T09:45:47Z</time>
      </trkpt>
      <trkpt lat="45.3837" lon="3.7499">
        <ele>654</ele>
        <time>2012-06-02T09:45:50Z</time>
      </trkpt>
      <trkpt lat="45.38373" lon="3.74973">
        <ele>650.40002441406</ele>
        <time>2012-06-02T09:45:55Z</time>
      </trkpt>
      <trkpt lat="45.38377" lon="3.7497">
        <ele>651.09997558594</ele>
        <time>2012-06-02T09:45:57Z</time>
      </trkpt>
      <trkpt lat="45.3838" lon="3.74965">
        <ele>650</ele>
        <time>2012-06-02T09:46:02Z</time>
      </trkpt>
      <trkpt lat="45.38384" lon="3.7496">
        <ele>652</ele>
        <time>2012-06-02T09:46:04Z</time>
      </trkpt>
      <trkpt lat="45.3839" lon="3.74953">
        <ele>654.09997558594</ele>
        <time>2012-06-02T09:46:07Z</time>
      </trkpt>
      <trkpt lat="45.38394" lon="3.74949">
        <ele>655.29998779297</ele>
        <time>2012-06-02T09:46:09Z</time>
      </trkpt>
      <trkpt lat="45.38395" lon="3.74941">
        <ele>652</ele>
        <time>2012-06-02T09:46:13Z</time>
      </trkpt>
      <trkpt lat="45.38402" lon="3.74933">
        <ele>652</ele>
        <time>2012-06-02T09:46:24Z</time>
      </trkpt>
      <trkpt lat="45.38405" lon="3.74927">
        <ele>653</ele>
        <time>2012-06-02T09:46:27Z</time>
      </trkpt>
      <trkpt lat="45.38413" lon="3.74917">
        <ele>654.5</ele>
        <time>2012-06-02T09:46:32Z</time>
      </trkpt>
      <trkpt lat="45.38418" lon="3.74911">
        <ele>655.20001220703</ele>
        <time>2012-06-02T09:46:36Z</time>
      </trkpt>
      <trkpt lat="45.38425" lon="3.74907">
        <ele>655.40002441406</ele>
        <time>2012-06-02T09:46:41Z</time>
      </trkpt>
      <trkpt lat="45.38426" lon="3.749">
        <ele>653.20001220703</ele>
        <time>2012-06-02T09:46:46Z</time>
      </trkpt>
      <trkpt lat="45.38427" lon="3.74893">
        <ele>653.59997558594</ele>
        <time>2012-06-02T09:46:50Z</time>
      </trkpt>
      <trkpt lat="45.3843" lon="3.74887">
        <ele>653.29998779297</ele>
        <time>2012-06-02T09:46:53Z</time>
      </trkpt>
      <trkpt lat="45.38433" lon="3.74882">
        <ele>654.29998779297</ele>
        <time>2012-06-02T09:46:56Z</time>
      </trkpt>
      <trkpt lat="45.38436" lon="3.74876">
        <ele>653</ele>
        <time>2012-06-02T09:47:01Z</time>
      </trkpt>
      <trkpt lat="45.3844" lon="3.74869">
        <ele>651.59997558594</ele>
        <time>2012-06-02T09:47:06Z</time>
      </trkpt>
      <trkpt lat="45.38443" lon="3.74863">
        <ele>652</ele>
        <time>2012-06-02T09:47:11Z</time>
      </trkpt>
      <trkpt lat="45.38446" lon="3.74856">
        <ele>650.5</ele>
        <time>2012-06-02T09:47:15Z</time>
      </trkpt>
      <trkpt lat="45.38453" lon="3.74844">
        <ele>651</ele>
        <time>2012-06-02T09:47:24Z</time>
      </trkpt>
      <trkpt lat="45.38456" lon="3.74839">
        <ele>649.5</ele>
        <time>2012-06-02T09:47:27Z</time>
      </trkpt>
      <trkpt lat="45.38458" lon="3.74834">
        <ele>648.90002441406</ele>
        <time>2012-06-02T09:47:30Z</time>
      </trkpt>
      <trkpt lat="45.38462" lon="3.74829">
        <ele>649.79998779297</ele>
        <time>2012-06-02T09:47:33Z</time>
      </trkpt>
      <trkpt lat="45.38466" lon="3.74824">
        <ele>649.5</ele>
        <time>2012-06-02T09:47:36Z</time>
      </trkpt>
      <trkpt lat="45.38469" lon="3.74817">
        <ele>648.59997558594</ele>
        <time>2012-06-02T09:47:40Z</time>
      </trkpt>
      <trkpt lat="45.38471" lon="3.74811">
        <ele>649.70001220703</ele>
        <time>2012-06-02T09:47:44Z</time>
      </trkpt>
      <trkpt lat="45.38475" lon="3.74804">
        <ele>647.90002441406</ele>
        <time>2012-06-02T09:47:50Z</time>
      </trkpt>
      <trkpt lat="45.38478" lon="3.74798">
        <ele>646.70001220703</ele>
        <time>2012-06-02T09:47:53Z</time>
      </trkpt>
      <trkpt lat="45.38483" lon="3.7479">
        <ele>652.70001220703</ele>
        <time>2012-06-02T09:47:57Z</time>
      </trkpt>
      <trkpt lat="45.38487" lon="3.74785">
        <ele>653.79998779297</ele>
        <time>2012-06-02T09:48:00Z</time>
      </trkpt>
      <trkpt lat="45.38491" lon="3.74777">
        <ele>652.90002441406</ele>
        <time>2012-06-02T09:48:03Z</time>
      </trkpt>
      <trkpt lat="45.38495" lon="3.74769">
        <ele>652.70001220703</ele>
        <time>2012-06-02T09:48:06Z</time>
      </trkpt>
      <trkpt lat="45.38496" lon="3.74763">
        <ele>651.5</ele>
        <time>2012-06-02T09:48:08Z</time>
      </trkpt>
      <trkpt lat="45.38501" lon="3.74755">
        <ele>650.20001220703</ele>
        <time>2012-06-02T09:48:11Z</time>
      </trkpt>
      <trkpt lat="45.38518" lon="3.74737">
        <ele>646.29998779297</ele>
        <time>2012-06-02T09:48:20Z</time>
      </trkpt>
      <trkpt lat="45.38522" lon="3.74731">
        <ele>645.90002441406</ele>
        <time>2012-06-02T09:48:23Z</time>
      </trkpt>
      <trkpt lat="45.38531" lon="3.74719">
        <ele>646.5</ele>
        <time>2012-06-02T09:48:27Z</time>
      </trkpt>
      <trkpt lat="45.38531" lon="3.74712">
        <ele>648.20001220703</ele>
        <time>2012-06-02T09:48:29Z</time>
      </trkpt>
      <trkpt lat="45.38543" lon="3.74694">
        <ele>646.70001220703</ele>
        <time>2012-06-02T09:48:36Z</time>
      </trkpt>
      <trkpt lat="45.38543" lon="3.74677">
        <ele>642.70001220703</ele>
        <time>2012-06-02T09:48:38Z</time>
      </trkpt>
      <trkpt lat="45.38547" lon="3.74674">
        <ele>644.79998779297</ele>
        <time>2012-06-02T09:48:40Z</time>
      </trkpt>
      <trkpt lat="45.38553" lon="3.74668">
        <ele>647.09997558594</ele>
        <time>2012-06-02T09:48:45Z</time>
      </trkpt>
      <trkpt lat="45.38563" lon="3.74648">
        <ele>647.79998779297</ele>
        <time>2012-06-02T09:48:52Z</time>
      </trkpt>
      <trkpt lat="45.38565" lon="3.74641">
        <ele>646.5</ele>
        <time>2012-06-02T09:48:56Z</time>
      </trkpt>
      <trkpt lat="45.38569" lon="3.74633">
        <ele>646.29998779297</ele>
        <time>2012-06-02T09:49:00Z</time>
      </trkpt>
      <trkpt lat="45.38575" lon="3.74629">
        <ele>647.5</ele>
        <time>2012-06-02T09:49:03Z</time>
      </trkpt>
      <trkpt lat="45.38578" lon="3.74623">
        <ele>648.70001220703</ele>
        <time>2012-06-02T09:49:05Z</time>
      </trkpt>
      <trkpt lat="45.38583" lon="3.74614">
        <ele>649.59997558594</ele>
        <time>2012-06-02T09:49:08Z</time>
      </trkpt>
      <trkpt lat="45.38586" lon="3.74606">
        <ele>649.5</ele>
        <time>2012-06-02T09:49:11Z</time>
      </trkpt>
      <trkpt lat="45.38589" lon="3.746">
        <ele>649.20001220703</ele>
        <time>2012-06-02T09:49:14Z</time>
      </trkpt>
      <trkpt lat="45.38592" lon="3.74595">
        <ele>648.70001220703</ele>
        <time>2012-06-02T09:49:16Z</time>
      </trkpt>
      <trkpt lat="45.38597" lon="3.74588">
        <ele>649.79998779297</ele>
        <time>2012-06-02T09:49:20Z</time>
      </trkpt>
      <trkpt lat="45.38601" lon="3.74581">
        <ele>649.70001220703</ele>
        <time>2012-06-02T09:49:22Z</time>
      </trkpt>
      <trkpt lat="45.38604" lon="3.74575">
        <ele>651.70001220703</ele>
        <time>2012-06-02T09:49:24Z</time>
      </trkpt>
      <trkpt lat="45.38608" lon="3.74569">
        <ele>652.59997558594</ele>
        <time>2012-06-02T09:49:27Z</time>
      </trkpt>
      <trkpt lat="45.38612" lon="3.74564">
        <ele>652.09997558594</ele>
        <time>2012-06-02T09:49:29Z</time>
      </trkpt>
      <trkpt lat="45.38616" lon="3.74559">
        <ele>652.59997558594</ele>
        <time>2012-06-02T09:49:32Z</time>
      </trkpt>
      <trkpt lat="45.3862" lon="3.74552">
        <ele>653</ele>
        <time>2012-06-02T09:49:35Z</time>
      </trkpt>
      <trkpt lat="45.38624" lon="3.74547">
        <ele>652.20001220703</ele>
        <time>2012-06-02T09:49:38Z</time>
      </trkpt>
      <trkpt lat="45.38629" lon="3.74543">
        <ele>652.40002441406</ele>
        <time>2012-06-02T09:49:40Z</time>
      </trkpt>
      <trkpt lat="45.38635" lon="3.74542">
        <ele>652.79998779297</ele>
        <time>2012-06-02T09:49:43Z</time>
      </trkpt>
      <trkpt lat="45.38639" lon="3.74539">
        <ele>651.40002441406</ele>
        <time>2012-06-02T09:49:46Z</time>
      </trkpt>
      <trkpt lat="45.38642" lon="3.74534">
        <ele>651.70001220703</ele>
        <time>2012-06-02T09:49:48Z</time>
      </trkpt>
      <trkpt lat="45.38648" lon="3.74531">
        <ele>650.59997558594</ele>
        <time>2012-06-02T09:49:51Z</time>
      </trkpt>
      <trkpt lat="45.38653" lon="3.7453">
        <ele>650.70001220703</ele>
        <time>2012-06-02T09:49:53Z</time>
      </trkpt>
      <trkpt lat="45.38657" lon="3.74525">
        <ele>651</ele>
        <time>2012-06-02T09:49:55Z</time>
      </trkpt>
      <trkpt lat="45.38663" lon="3.74519">
        <ele>650.79998779297</ele>
        <time>2012-06-02T09:49:58Z</time>
      </trkpt>
      <trkpt lat="45.38667" lon="3.74516">
        <ele>651.5</ele>
        <time>2012-06-02T09:50:00Z</time>
      </trkpt>
      <trkpt lat="45.38674" lon="3.74509">
        <ele>652.59997558594</ele>
        <time>2012-06-02T09:50:03Z</time>
      </trkpt>
      <trkpt lat="45.38682" lon="3.74499">
        <ele>653.5</ele>
        <time>2012-06-02T09:50:08Z</time>
      </trkpt>
      <trkpt lat="45.38685" lon="3.74494">
        <ele>653.70001220703</ele>
        <time>2012-06-02T09:50:10Z</time>
      </trkpt>
      <trkpt lat="45.38691" lon="3.7449">
        <ele>654.40002441406</ele>
        <time>2012-06-02T09:50:13Z</time>
      </trkpt>
      <trkpt lat="45.38695" lon="3.74486">
        <ele>653.79998779297</ele>
        <time>2012-06-02T09:50:15Z</time>
      </trkpt>
      <trkpt lat="45.38698" lon="3.74479">
        <ele>653</ele>
        <time>2012-06-02T09:50:17Z</time>
      </trkpt>
      <trkpt lat="45.38701" lon="3.74473">
        <ele>654.70001220703</ele>
        <time>2012-06-02T09:50:19Z</time>
      </trkpt>
      <trkpt lat="45.38706" lon="3.74468">
        <ele>653</ele>
        <time>2012-06-02T09:50:22Z</time>
      </trkpt>
      <trkpt lat="45.3871" lon="3.74464">
        <ele>653.40002441406</ele>
        <time>2012-06-02T09:50:24Z</time>
      </trkpt>
      <trkpt lat="45.38714" lon="3.74459">
        <ele>653.09997558594</ele>
        <time>2012-06-02T09:50:27Z</time>
      </trkpt>
      <trkpt lat="45.3872" lon="3.74458">
        <ele>654.40002441406</ele>
        <time>2012-06-02T09:50:29Z</time>
      </trkpt>
      <trkpt lat="45.38727" lon="3.74454">
        <ele>653</ele>
        <time>2012-06-02T09:50:32Z</time>
      </trkpt>
      <trkpt lat="45.38734" lon="3.7445">
        <ele>653.79998779297</ele>
        <time>2012-06-02T09:50:35Z</time>
      </trkpt>
      <trkpt lat="45.38739" lon="3.74446">
        <ele>653.09997558594</ele>
        <time>2012-06-02T09:50:37Z</time>
      </trkpt>
      <trkpt lat="45.38743" lon="3.74442">
        <ele>652.29998779297</ele>
        <time>2012-06-02T09:50:39Z</time>
      </trkpt>
      <trkpt lat="45.38748" lon="3.74436">
        <ele>653.79998779297</ele>
        <time>2012-06-02T09:50:42Z</time>
      </trkpt>
      <trkpt lat="45.38753" lon="3.74432">
        <ele>652.59997558594</ele>
        <time>2012-06-02T09:50:45Z</time>
      </trkpt>
      <trkpt lat="45.38759" lon="3.74429">
        <ele>653.20001220703</ele>
        <time>2012-06-02T09:50:47Z</time>
      </trkpt>
      <trkpt lat="45.38772" lon="3.74417">
        <ele>652.79998779297</ele>
        <time>2012-06-02T09:50:53Z</time>
      </trkpt>
      <trkpt lat="45.38776" lon="3.74414">
        <ele>652</ele>
        <time>2012-06-02T09:50:55Z</time>
      </trkpt>
      <trkpt lat="45.38781" lon="3.7441">
        <ele>651.70001220703</ele>
        <time>2012-06-02T09:50:57Z</time>
      </trkpt>
      <trkpt lat="45.38786" lon="3.74406">
        <ele>651.79998779297</ele>
        <time>2012-06-02T09:50:59Z</time>
      </trkpt>
      <trkpt lat="45.38791" lon="3.74403">
        <ele>652.20001220703</ele>
        <time>2012-06-02T09:51:01Z</time>
      </trkpt>
      <trkpt lat="45.38796" lon="3.744">
        <ele>652.5</ele>
        <time>2012-06-02T09:51:03Z</time>
      </trkpt>
      <trkpt lat="45.388" lon="3.74396">
        <ele>652.20001220703</ele>
        <time>2012-06-02T09:51:06Z</time>
      </trkpt>
      <trkpt lat="45.38806" lon="3.74391">
        <ele>653</ele>
        <time>2012-06-02T09:51:09Z</time>
      </trkpt>
      <trkpt lat="45.3881" lon="3.74386">
        <ele>653</ele>
        <time>2012-06-02T09:51:11Z</time>
      </trkpt>
      <trkpt lat="45.38813" lon="3.7438">
        <ele>652.90002441406</ele>
        <time>2012-06-02T09:51:13Z</time>
      </trkpt>
      <trkpt lat="45.38815" lon="3.74368">
        <ele>652</ele>
        <time>2012-06-02T09:51:18Z</time>
      </trkpt>
      <trkpt lat="45.38815" lon="3.7436">
        <ele>652.59997558594</ele>
        <time>2012-06-02T09:51:20Z</time>
      </trkpt>
      <trkpt lat="45.38813" lon="3.74353">
        <ele>653.90002441406</ele>
        <time>2012-06-02T09:51:22Z</time>
      </trkpt>
      <trkpt lat="45.38812" lon="3.74346">
        <ele>654.79998779297</ele>
        <time>2012-06-02T09:51:24Z</time>
      </trkpt>
      <trkpt lat="45.38807" lon="3.74341">
        <ele>654.20001220703</ele>
        <time>2012-06-02T09:51:27Z</time>
      </trkpt>
      <trkpt lat="45.38801" lon="3.7434">
        <ele>652.5</ele>
        <time>2012-06-02T09:51:30Z</time>
      </trkpt>
      <trkpt lat="45.38796" lon="3.74341">
        <ele>652.29998779297</ele>
        <time>2012-06-02T09:51:32Z</time>
      </trkpt>
      <trkpt lat="45.38791" lon="3.74341">
        <ele>653.09997558594</ele>
        <time>2012-06-02T09:51:36Z</time>
      </trkpt>
      <trkpt lat="45.38787" lon="3.74346">
        <ele>651.09997558594</ele>
        <time>2012-06-02T09:51:40Z</time>
      </trkpt>
      <trkpt lat="45.38783" lon="3.74345">
        <ele>651.09997558594</ele>
        <time>2012-06-02T09:51:43Z</time>
      </trkpt>
      <trkpt lat="45.38776" lon="3.74345">
        <ele>653</ele>
        <time>2012-06-02T09:51:46Z</time>
      </trkpt>
      <trkpt lat="45.38771" lon="3.74347">
        <ele>651.59997558594</ele>
        <time>2012-06-02T09:51:49Z</time>
      </trkpt>
      <trkpt lat="45.3876" lon="3.74347">
        <ele>652.09997558594</ele>
        <time>2012-06-02T09:51:58Z</time>
      </trkpt>
      <trkpt lat="45.38754" lon="3.74348">
        <ele>653.09997558594</ele>
        <time>2012-06-02T09:52:01Z</time>
      </trkpt>
      <trkpt lat="45.38749" lon="3.74348">
        <ele>651.5</ele>
        <time>2012-06-02T09:52:06Z</time>
      </trkpt>
      <trkpt lat="45.38743" lon="3.74348">
        <ele>652.09997558594</ele>
        <time>2012-06-02T09:52:14Z</time>
      </trkpt>
      <trkpt lat="45.38736" lon="3.74347">
        <ele>654.29998779297</ele>
        <time>2012-06-02T09:52:17Z</time>
      </trkpt>
      <trkpt lat="45.38727" lon="3.74347">
        <ele>654.59997558594</ele>
        <time>2012-06-02T09:52:22Z</time>
      </trkpt>
      <trkpt lat="45.38722" lon="3.74346">
        <ele>655.70001220703</ele>
        <time>2012-06-02T09:52:27Z</time>
      </trkpt>
      <trkpt lat="45.38718" lon="3.74347">
        <ele>655.09997558594</ele>
        <time>2012-06-02T09:52:30Z</time>
      </trkpt>
      <trkpt lat="45.38708" lon="3.74349">
        <ele>654.40002441406</ele>
        <time>2012-06-02T09:52:38Z</time>
      </trkpt>
      <trkpt lat="45.38702" lon="3.74349">
        <ele>653.5</ele>
        <time>2012-06-02T09:52:45Z</time>
      </trkpt>
      <trkpt lat="45.38697" lon="3.7435">
        <ele>653.20001220703</ele>
        <time>2012-06-02T09:52:47Z</time>
      </trkpt>
      <trkpt lat="45.38691" lon="3.74349">
        <ele>654.70001220703</ele>
        <time>2012-06-02T09:52:51Z</time>
      </trkpt>
      <trkpt lat="45.38685" lon="3.74349">
        <ele>655.5</ele>
        <time>2012-06-02T09:52:54Z</time>
      </trkpt>
      <trkpt lat="45.38679" lon="3.74348">
        <ele>655.70001220703</ele>
        <time>2012-06-02T09:52:57Z</time>
      </trkpt>
      <trkpt lat="45.38675" lon="3.74348">
        <ele>655.40002441406</ele>
        <time>2012-06-02T09:53:00Z</time>
      </trkpt>
      <trkpt lat="45.38668" lon="3.74348">
        <ele>655.09997558594</ele>
        <time>2012-06-02T09:53:03Z</time>
      </trkpt>
      <trkpt lat="45.38658" lon="3.74345">
        <ele>654.90002441406</ele>
        <time>2012-06-02T09:53:08Z</time>
      </trkpt>
      <trkpt lat="45.38646" lon="3.74346">
        <ele>653.29998779297</ele>
        <time>2012-06-02T09:53:14Z</time>
      </trkpt>
      <trkpt lat="45.38635" lon="3.74346">
        <ele>653.40002441406</ele>
        <time>2012-06-02T09:53:20Z</time>
      </trkpt>
      <trkpt lat="45.38627" lon="3.74344">
        <ele>652.90002441406</ele>
        <time>2012-06-02T09:53:23Z</time>
      </trkpt>
      <trkpt lat="45.3862" lon="3.74344">
        <ele>652.90002441406</ele>
        <time>2012-06-02T09:53:26Z</time>
      </trkpt>
      <trkpt lat="45.38611" lon="3.74346">
        <ele>654.5</ele>
        <time>2012-06-02T09:53:30Z</time>
      </trkpt>
      <trkpt lat="45.38606" lon="3.74346">
        <ele>654.40002441406</ele>
        <time>2012-06-02T09:53:32Z</time>
      </trkpt>
      <trkpt lat="45.38599" lon="3.74347">
        <ele>654.40002441406</ele>
        <time>2012-06-02T09:53:35Z</time>
      </trkpt>
      <trkpt lat="45.38592" lon="3.74349">
        <ele>654.59997558594</ele>
        <time>2012-06-02T09:53:38Z</time>
      </trkpt>
      <trkpt lat="45.38588" lon="3.74348">
        <ele>655.40002441406</ele>
        <time>2012-06-02T09:53:40Z</time>
      </trkpt>
      <trkpt lat="45.38583" lon="3.74352">
        <ele>654.90002441406</ele>
        <time>2012-06-02T09:53:43Z</time>
      </trkpt>
      <trkpt lat="45.38577" lon="3.74351">
        <ele>654</ele>
        <time>2012-06-02T09:53:46Z</time>
      </trkpt>
    </trkseg>
  </trk>
</gpx>